Time;durP1;ratioP1;P1;durP2;ratioP2;P2;SDS_P1;SDS_P2;PMS_P1;PMS_P2;Temp;Humidity;BMP_temperature;BMP_pressure;BME280_temperature;BME280_humidity;BME280_pressure;Samples;Min_cycle;Max_cycle;Signal;HPM_P1;HPM_P2
2022/06/19 00:02:01;;;;;;;0.00;0.00;;;15.80;99.90;;;;;;4982016;28;20042;-60
2022/06/19 00:04:27;;;;;;;0.00;0.00;;;15.80;99.90;;;;;;4996129;28;20137;-60
2022/06/19 00:06:56;;;;;;;0.00;0.00;;;15.70;99.90;;;;;;4982043;28;20046;-61
2022/06/19 00:09:25;;;;;;;0.00;0.00;;;15.70;99.90;;;;;;4981360;28;20054;-60
2022/06/19 00:11:52;;;;;;;0.00;0.00;;;15.80;99.90;;;;;;4981255;28;20050;-60
2022/06/19 00:14:17;;;;;;;0.00;0.00;;;15.80;99.90;;;;;;4980711;28;20538;-60
2022/06/19 00:16:43;;;;;;;0.00;0.00;;;15.70;99.90;;;;;;4982044;28;20083;-60
2022/06/19 00:19:09;;;;;;;0.00;0.00;;;15.70;99.90;;;;;;4980140;28;20038;-61
2022/06/19 00:21:35;;;;;;;0.00;0.00;;;15.70;99.90;;;;;;4980486;28;20042;-61
2022/06/19 00:24:01;;;;;;;0.00;0.00;;;15.60;99.90;;;;;;4981527;28;20042;-60
2022/06/19 00:26:26;;;;;;;0.00;0.00;;;15.70;99.90;;;;;;4980292;28;20065;-61
2022/06/19 00:28:53;;;;;;;0.00;0.00;;;15.70;99.90;;;;;;4981663;28;20186;-61
2022/06/19 00:31:19;;;;;;;0.00;0.00;;;15.80;99.90;;;;;;4980267;28;20137;-61
2022/06/19 00:33:44;;;;;;;0.00;0.00;;;15.70;99.90;;;;;;4982074;28;20133;-61
2022/06/19 00:36:11;;;;;;;0.32;0.10;;;15.70;99.90;;;;;;4981237;28;20053;-60
2022/06/19 00:38:37;;;;;;;0.00;0.00;;;15.70;99.90;;;;;;4981068;28;20046;-61
2022/06/19 00:41:03;;;;;;;0.00;0.00;;;15.60;99.90;;;;;;4979699;28;20145;-62
2022/06/19 00:43:29;;;;;;;0.00;0.00;;;15.60;99.90;;;;;;4980840;28;20053;-62
2022/06/19 00:46:02;;;;;;;0.00;0.00;;;15.60;99.90;;;;;;4992088;28;20042;-62
2022/06/19 00:48:31;;;;;;;0.00;0.00;;;15.50;99.90;;;;;;4979940;28;20237;-61
2022/06/19 00:51:02;;;;;;;0.00;0.00;;;15.60;99.90;;;;;;4980722;28;20050;-60
2022/06/19 00:53:32;;;;;;;0.00;0.00;;;15.50;99.90;;;;;;4980727;28;20429;-61
2022/06/19 00:55:59;;;;;;;0.00;0.00;;;15.50;99.90;;;;;;4979201;28;20054;-60
2022/06/19 00:58:36;;;;;;;0.00;0.00;;;15.50;99.90;;;;;;4980566;28;20050;-61
2022/06/19 01:01:06;;;;;;;0.00;0.00;;;15.50;99.90;;;;;;4980426;28;20471;-61
2022/06/19 01:03:56;;;;;;;0.00;0.00;;;15.50;99.90;;;;;;4980045;28;20073;-61
2022/06/19 01:06:23;;;;;;;0.00;0.00;;;15.50;99.90;;;;;;4980435;28;20046;-61
2022/06/19 01:08:50;;;;;;;0.00;0.00;;;15.50;99.90;;;;;;4979357;28;20050;-60
2022/06/19 01:11:18;;;;;;;0.00;0.00;;;15.60;99.90;;;;;;4979263;28;20610;-60
2022/06/19 01:13:43;;;;;;;0.00;0.00;;;15.60;99.90;;;;;;4980585;28;20047;-61
2022/06/19 01:16:09;;;;;;;0.00;0.00;;;15.60;99.90;;;;;;4986186;28;20126;-61
2022/06/19 01:18:37;;;;;;;0.00;0.00;;;15.50;99.90;;;;;;4980071;28;20528;-61
2022/06/19 01:21:26;;;;;;;0.00;0.00;;;15.50;99.90;;;;;;4995837;28;20037;-61
2022/06/19 01:24:33;;;;;;;0.00;0.00;;;15.50;99.90;;;;;;4999356;28;20053;-61
2022/06/19 01:27:02;;;;;;;0.00;0.00;;;15.60;99.90;;;;;;4990812;28;20054;-60
2022/06/19 01:29:31;;;;;;;0.00;0.00;;;15.60;99.90;;;;;;4999579;28;20068;-60
2022/06/19 01:31:59;;;;;;;0.00;0.00;;;15.60;99.90;;;;;;4999766;28;20051;-60
2022/06/19 01:34:29;;;;;;;0.00;0.00;;;15.60;99.90;;;;;;4998879;28;20049;-61
2022/06/19 01:37:15;;;;;;;0.00;0.00;;;15.60;99.90;;;;;;4999771;28;20559;-61
2022/06/19 01:39:48;;;;;;;0.00;0.00;;;15.60;99.90;;;;;;4997756;28;20185;-57
2022/06/19 01:42:14;;;;;;;0.00;0.00;;;15.60;99.90;;;;;;4999017;28;20108;-61
2022/06/19 01:44:43;;;;;;;0.00;0.00;;;15.70;99.90;;;;;;4993273;28;20081;-61
2022/06/19 01:47:10;;;;;;;0.00;0.00;;;15.60;99.90;;;;;;4986420;28;20454;-62
2022/06/19 01:49:38;;;;;;;0.00;0.00;;;15.50;99.90;;;;;;4979836;28;20532;-61
2022/06/19 01:52:05;;;;;;;0.00;0.00;;;15.40;99.90;;;;;;4986743;28;20041;-61
2022/06/19 01:54:58;;;;;;;0.00;0.00;;;15.30;99.90;;;;;;4999090;28;20072;-61
2022/06/19 01:57:24;;;;;;;0.00;0.00;;;15.30;99.90;;;;;;4998367;28;20129;-60
2022/06/19 01:59:51;;;;;;;0.00;0.00;;;15.30;99.90;;;;;;4999609;28;20048;-61
2022/06/19 02:02:18;;;;;;;0.00;0.00;;;15.30;99.90;;;;;;4998537;28;20417;-61
2022/06/19 02:04:45;;;;;;;0.00;0.00;;;15.20;99.90;;;;;;4999713;28;20584;-61
2022/06/19 02:07:21;;;;;;;0.00;0.00;;;15.30;99.90;;;;;;4998336;28;20378;-61
2022/06/19 02:09:47;;;;;;;0.00;0.00;;;15.30;99.90;;;;;;4998359;28;20479;-61
2022/06/19 02:12:14;;;;;;;0.00;0.00;;;15.30;99.90;;;;;;4998742;28;20489;-60
2022/06/19 02:14:39;;;;;;;0.00;0.00;;;15.30;99.90;;;;;;4999294;28;20054;-61
2022/06/19 02:17:18;;;;;;;0.00;0.00;;;15.30;99.90;;;;;;4998531;28;20053;-61
2022/06/19 02:19:43;;;;;;;0.00;0.00;;;15.30;99.90;;;;;;4999089;28;20445;-60
2022/06/19 02:22:14;;;;;;;0.00;0.00;;;15.30;99.90;;;;;;4999169;28;20030;-61
2022/06/19 02:24:41;;;;;;;0.00;0.00;;;15.20;99.90;;;;;;4997940;28;20235;-61
2022/06/19 02:27:07;;;;;;;0.00;0.00;;;15.20;99.90;;;;;;4998523;28;20719;-61
2022/06/19 02:29:35;;;;;;;0.00;0.00;;;15.30;99.90;;;;;;4999070;28;20042;-61
2022/06/19 02:32:02;;;;;;;0.00;0.00;;;15.30;99.90;;;;;;4999307;28;20416;-61
2022/06/19 02:34:40;;;;;;;0.00;0.00;;;15.20;99.90;;;;;;4998742;28;20087;-61
2022/06/19 02:37:17;;;;;;;0.00;0.00;;;15.20;99.90;;;;;;4998902;28;20322;-61
2022/06/19 02:39:56;;;;;;;0.00;0.00;;;15.20;99.90;;;;;;4998694;28;20057;-60
2022/06/19 02:42:28;;;;;;;0.00;0.00;;;15.20;99.90;;;;;;4998367;28;20045;-61
2022/06/19 02:44:56;;;;;;;0.00;0.00;;;15.20;99.90;;;;;;4992621;28;20117;-61
2022/06/19 02:47:24;;;;;;;0.00;0.00;;;15.20;99.90;;;;;;4987094;28;21141;-60
2022/06/19 02:49:50;;;;;;;0.00;0.00;;;15.20;99.90;;;;;;4979560;28;20409;-61
2022/06/19 02:52:16;;;;;;;0.00;0.00;;;15.20;99.90;;;;;;4978075;28;20054;-61
2022/06/19 02:54:41;;;;;;;0.00;0.00;;;15.20;99.90;;;;;;4979100;28;20047;-55
2022/06/19 02:57:10;;;;;;;0.00;0.00;;;15.20;99.90;;;;;;4993737;28;20409;-60
2022/06/19 02:59:36;;;;;;;0.00;0.00;;;15.20;99.90;;;;;;4979262;28;20666;-61
2022/06/19 03:02:01;;;;;;;0.00;0.00;;;15.20;99.90;;;;;;4978571;28;20078;-61
2022/06/19 03:04:39;;;;;;;0.00;0.00;;;15.20;99.90;;;;;;4980560;28;20050;-62
2022/06/19 03:07:05;;;;;;;0.00;0.00;;;15.20;99.90;;;;;;4982761;28;20698;-61
2022/06/19 03:09:31;;;;;;;0.00;0.00;;;15.10;99.90;;;;;;4981607;28;20050;-62
2022/06/19 03:11:57;;;;;;;0.00;0.00;;;15.20;99.90;;;;;;4982341;28;20104;-60
2022/06/19 03:14:24;;;;;;;0.00;0.00;;;15.20;99.90;;;;;;4982618;28;20129;-60
2022/06/19 03:16:50;;;;;;;0.00;0.00;;;15.10;99.90;;;;;;4982680;28;20606;-61
2022/06/19 03:19:16;;;;;;;0.00;0.00;;;15.20;99.90;;;;;;4980384;28;20405;-60
2022/06/19 03:21:42;;;;;;;0.00;0.00;;;15.10;99.90;;;;;;4982981;28;20046;-57
2022/06/19 03:24:08;;;;;;;0.00;0.00;;;15.10;99.90;;;;;;4982513;28;20576;-61
2022/06/19 03:26:33;;;;;;;0.00;0.00;;;15.10;99.90;;;;;;4980961;28;20137;-62
2022/06/19 03:28:59;;;;;;;0.00;0.00;;;15.00;99.90;;;;;;4981745;28;20090;-61
2022/06/19 03:31:26;;;;;;;0.00;0.00;;;14.90;99.90;;;;;;4982285;28;20045;-62
2022/06/19 03:33:53;;;;;;;0.00;0.00;;;15.00;99.90;;;;;;4982689;28;20062;-60
2022/06/19 03:36:19;;;;;;;0.00;0.00;;;15.00;99.90;;;;;;4981179;28;20532;-62
2022/06/19 03:38:45;;;;;;;0.00;0.00;;;14.90;99.90;;;;;;4982838;28;20507;-60
2022/06/19 03:41:11;;;;;;;0.00;0.00;;;14.80;99.90;;;;;;4981295;28;20130;-61
2022/06/19 03:43:37;;;;;;;0.00;0.00;;;14.70;99.90;;;;;;4981991;28;20061;-60
2022/06/19 03:46:07;;;;;;;0.00;0.00;;;14.60;99.90;;;;;;4992317;28;20046;-61
2022/06/19 03:48:33;;;;;;;0.00;0.00;;;14.70;99.90;;;;;;4981761;28;20130;-61
2022/06/19 03:50:59;;;;;;;0.00;0.00;;;14.70;99.90;;;;;;4981735;28;20165;-62
2022/06/19 03:53:24;;;;;;;0.00;0.00;;;14.70;99.90;;;;;;4980899;28;20075;-61
2022/06/19 03:55:50;;;;;;;0.00;0.00;;;14.70;99.90;;;;;;4981382;28;20148;-62
2022/06/19 03:58:16;;;;;;;0.00;0.00;;;14.70;99.90;;;;;;4981845;28;20046;-60
2022/06/19 04:00:42;;;;;;;0.00;0.00;;;14.80;99.90;;;;;;4980859;28;20038;-60
2022/06/19 04:03:07;;;;;;;0.00;0.00;;;14.70;99.90;;;;;;4981142;28;20058;-61
2022/06/19 04:05:33;;;;;;;0.00;0.00;;;14.70;99.90;;;;;;4981403;28;20209;-61
2022/06/19 04:07:59;;;;;;;0.00;0.00;;;14.70;99.90;;;;;;4981099;28;20560;-60
2022/06/19 04:10:25;;;;;;;0.00;0.00;;;14.70;99.90;;;;;;4979686;28;20061;-61
2022/06/19 04:12:51;;;;;;;0.00;0.00;;;14.70;99.90;;;;;;4981173;28;20100;-61
2022/06/19 04:15:17;;;;;;;0.00;0.00;;;14.60;99.90;;;;;;4981248;28;20061;-60
2022/06/19 04:17:43;;;;;;;0.00;0.00;;;14.50;99.90;;;;;;4980695;28;20078;-60
2022/06/19 04:20:10;;;;;;;0.00;0.00;;;14.50;99.90;;;;;;4981017;28;20038;-61
2022/06/19 04:22:37;;;;;;;0.00;0.00;;;14.40;99.90;;;;;;4981302;28;20145;-61
2022/06/19 04:25:07;;;;;;;0.00;0.00;;;14.30;99.90;;;;;;4980468;28;20052;-58
2022/06/19 04:27:34;;;;;;;0.00;0.00;;;14.30;99.90;;;;;;4980237;28;20041;-61
2022/06/19 04:30:01;;;;;;;0.00;0.00;;;14.30;99.90;;;;;;4981616;28;20133;-60
2022/06/19 04:32:26;;;;;;;0.00;0.00;;;14.40;99.90;;;;;;4979686;28;20038;-61
2022/06/19 04:34:52;;;;;;;0.00;0.00;;;14.40;99.90;;;;;;4981180;28;20394;-60
2022/06/19 04:37:17;;;;;;;0.10;0.10;;;14.20;99.90;;;;;;4979721;28;20097;-59
2022/06/19 04:39:43;;;;;;;0.00;0.00;;;14.10;99.90;;;;;;4981266;28;20053;-60
2022/06/19 04:42:09;;;;;;;0.00;0.00;;;14.10;99.90;;;;;;4980521;28;20069;-60
2022/06/19 04:44:34;;;;;;;0.00;0.00;;;14.10;99.90;;;;;;4983699;28;20040;-60
2022/06/19 04:47:00;;;;;;;0.00;0.00;;;14.00;99.90;;;;;;4989106;28;20046;-61
2022/06/19 04:49:25;;;;;;;0.00;0.00;;;13.90;99.90;;;;;;4980820;28;20060;-61
2022/06/19 04:51:51;;;;;;;0.00;0.00;;;14.10;99.90;;;;;;4980717;28;20038;-61
2022/06/19 04:54:17;;;;;;;0.00;0.00;;;14.20;99.90;;;;;;4979832;28;20047;-60
2022/06/19 04:56:43;;;;;;;0.00;0.00;;;14.20;99.90;;;;;;4980145;28;20050;-60
2022/06/19 04:59:09;;;;;;;0.00;0.00;;;14.10;99.90;;;;;;4979423;28;20086;-61
2022/06/19 05:01:39;;;;;;;0.00;0.00;;;14.10;99.90;;;;;;4980949;28;20050;-60
2022/06/19 05:04:08;;;;;;;0.00;0.00;;;14.20;99.90;;;;;;4980118;28;20528;-60
2022/06/19 05:06:34;;;;;;;0.00;0.00;;;14.30;99.90;;;;;;4980576;28;20057;-61
2022/06/19 05:09:00;;;;;;;0.00;0.00;;;14.30;99.90;;;;;;4980509;28;20058;-61
2022/06/19 05:11:28;;;;;;;0.00;0.00;;;14.50;99.90;;;;;;4979226;28;20057;-60
2022/06/19 05:13:54;;;;;;;0.00;0.00;;;14.70;99.90;;;;;;4980860;28;20081;-60
2022/06/19 05:16:22;;;;;;;0.00;0.00;;;14.70;99.90;;;;;;4980431;28;20050;-60
2022/06/19 05:18:49;;;;;;;0.00;0.00;;;14.80;99.90;;;;;;4980762;28;20043;-60
2022/06/19 05:21:15;;;;;;;0.00;0.00;;;14.90;99.90;;;;;;4979944;28;20482;-61
2022/06/19 05:23:44;;;;;;;0.00;0.00;;;14.90;99.90;;;;;;4981024;28;20523;-60
2022/06/19 05:26:20;;;;;;;0.00;0.00;;;14.90;99.90;;;;;;4979157;28;20039;-61
2022/06/19 05:28:48;;;;;;;0.00;0.00;;;14.90;99.90;;;;;;4980261;28;20038;-61
2022/06/19 05:31:14;;;;;;;0.00;0.00;;;15.00;99.90;;;;;;4980736;28;20046;-61
2022/06/19 05:33:40;;;;;;;0.00;0.00;;;15.00;99.90;;;;;;4980081;28;20096;-61
2022/06/19 05:36:06;;;;;;;0.00;0.00;;;15.00;99.90;;;;;;4979325;28;20129;-61
2022/06/19 05:38:32;;;;;;;0.00;0.00;;;15.00;99.90;;;;;;4980462;28;20049;-61
2022/06/19 05:40:59;;;;;;;0.00;0.00;;;15.00;99.90;;;;;;4979560;28;20046;-61
2022/06/19 05:43:27;;;;;;;0.00;0.00;;;15.00;99.90;;;;;;4980312;28;20405;-61
2022/06/19 05:46:02;;;;;;;0.00;0.00;;;14.90;99.90;;;;;;4989462;28;20046;-61
2022/06/19 05:48:29;;;;;;;0.00;0.00;;;14.90;99.90;;;;;;4980534;28;20110;-60
2022/06/19 05:51:02;;;;;;;0.00;0.00;;;14.90;99.90;;;;;;4980093;28;20422;-60
2022/06/19 05:53:29;;;;;;;0.00;0.00;;;14.90;99.90;;;;;;4979847;28;20042;-61
2022/06/19 05:55:55;;;;;;;0.00;0.00;;;15.00;99.90;;;;;;4977697;28;20045;-61
2022/06/19 05:58:21;;;;;;;0.00;0.00;;;14.90;99.90;;;;;;4979869;28;20756;-63
2022/06/19 06:00:46;;;;;;;0.00;0.00;;;15.00;99.90;;;;;;4979254;28;20482;-61
2022/06/19 06:03:17;;;;;;;0.00;0.00;;;15.00;99.90;;;;;;4979820;28;20050;-60
2022/06/19 06:05:47;;;;;;;0.00;0.00;;;14.90;99.90;;;;;;4980201;28;20061;-60
2022/06/19 06:08:14;;;;;;;0.00;0.00;;;14.90;99.90;;;;;;4979262;28;20136;-61
2022/06/19 06:10:40;;;;;;;0.10;0.00;;;14.80;99.90;;;;;;4978751;28;20055;-60
2022/06/19 06:13:06;;;;;;;0.00;0.00;;;14.80;99.90;;;;;;4979923;28;20050;-60
2022/06/19 06:15:32;;;;;;;0.00;0.00;;;14.80;99.90;;;;;;4978932;28;20065;-61
2022/06/19 06:17:59;;;;;;;0.00;0.00;;;14.70;99.90;;;;;;4978031;28;20054;-60
2022/06/19 06:20:25;;;;;;;0.00;0.00;;;14.70;99.90;;;;;;4979589;28;20053;-61
2022/06/19 06:22:51;;;;;;;0.00;0.00;;;14.70;99.90;;;;;;4979530;28;20052;-62
2022/06/19 06:25:17;;;;;;;0.00;0.00;;;14.70;99.90;;;;;;4977610;28;20582;-60
2022/06/19 06:27:42;;;;;;;0.00;0.00;;;14.70;99.90;;;;;;4980084;28;20611;-60
2022/06/19 06:30:10;;;;;;;0.00;0.00;;;14.60;99.90;;;;;;4978353;28;20053;-61
2022/06/19 06:32:36;;;;;;;0.00;0.00;;;14.60;99.90;;;;;;4979341;28;20086;-61
2022/06/19 06:35:01;;;;;;;0.00;0.00;;;14.70;99.90;;;;;;4978594;28;20096;-60
2022/06/19 06:37:27;;;;;;;0.00;0.00;;;14.60;99.90;;;;;;4980537;28;20054;-58
2022/06/19 06:39:53;;;;;;;0.00;0.00;;;14.60;99.90;;;;;;4983131;28;20078;-61
2022/06/19 06:42:18;;;;;;;0.00;0.00;;;14.60;99.90;;;;;;4981018;28;20046;-62
2022/06/19 06:44:44;;;;;;;0.00;0.00;;;14.60;99.90;;;;;;4985841;28;20150;-61
2022/06/19 06:47:10;;;;;;;0.00;0.00;;;14.50;99.90;;;;;;4991737;28;20130;-61
2022/06/19 06:49:35;;;;;;;0.00;0.00;;;14.40;99.90;;;;;;4982954;28;20088;-60
2022/06/19 06:52:01;;;;;;;0.00;0.00;;;14.40;99.90;;;;;;4981205;28;20058;-60
2022/06/19 06:54:27;;;;;;;0.00;0.00;;;14.50;99.90;;;;;;4982881;28;20030;-60
2022/06/19 06:56:54;;;;;;;0.00;0.00;;;14.60;99.90;;;;;;4982208;28;20445;-60
2022/06/19 06:59:20;;;;;;;0.00;0.00;;;14.60;99.90;;;;;;4983069;28;20050;-60
2022/06/19 07:01:46;;;;;;;0.00;0.00;;;14.60;99.90;;;;;;4981831;28;20477;-60
2022/06/19 07:04:12;;;;;;;0.00;0.00;;;14.60;99.90;;;;;;4981575;28;20061;-61
2022/06/19 07:06:37;;;;;;;0.00;0.00;;;14.70;99.90;;;;;;4982412;28;20070;-61
2022/06/19 07:09:04;;;;;;;0.00;0.00;;;14.70;99.90;;;;;;4981601;28;20051;-61
2022/06/19 07:11:39;;;;;;;0.00;0.00;;;14.70;99.90;;;;;;4982223;28;20092;-60
2022/06/19 07:14:05;;;;;;;0.00;0.00;;;14.70;99.90;;;;;;4982506;28;20052;-61
2022/06/19 07:16:31;;;;;;;0.00;0.00;;;14.70;99.90;;;;;;4981519;28;20512;-53
2022/06/19 07:18:56;;;;;;;0.00;0.00;;;14.70;99.90;;;;;;4982795;28;20074;-60
2022/06/19 07:21:22;;;;;;;0.00;0.00;;;14.80;99.90;;;;;;4982307;28;20513;-60
2022/06/19 07:23:48;;;;;;;0.00;0.00;;;14.80;99.90;;;;;;4981204;28;20085;-60
2022/06/19 07:26:16;;;;;;;0.00;0.00;;;14.90;99.90;;;;;;4981094;28;20497;-61
2022/06/19 07:28:43;;;;;;;0.00;0.00;;;14.80;99.90;;;;;;4982677;28;20116;-60
2022/06/19 07:31:10;;;;;;;0.00;0.00;;;15.00;99.90;;;;;;4982672;28;20105;-61
2022/06/19 07:33:37;;;;;;;0.00;0.00;;;14.90;99.90;;;;;;4980300;28;20270;-61
2022/06/19 07:36:04;;;;;;;0.00;0.00;;;14.80;99.90;;;;;;4982165;28;20054;-60
2022/06/19 07:38:29;;;;;;;0.00;0.00;;;14.80;99.90;;;;;;4981939;28;20117;-60
2022/06/19 07:40:55;;;;;;;0.00;0.00;;;14.80;99.90;;;;;;4981517;28;20129;-60
2022/06/19 07:43:21;;;;;;;0.00;0.00;;;14.90;99.90;;;;;;4981034;28;20123;-60
2022/06/19 07:45:46;;;;;;;0.00;0.00;;;14.90;99.90;;;;;;4992428;28;20555;-60
2022/06/19 07:50:56;;;;;;;0.00;0.00;;;15.00;99.90;;;;;;4980993;28;20055;-60
2022/06/19 07:53:22;;;;;;;0.00;0.00;;;15.00;99.90;;;;;;4981907;28;20056;-60
2022/06/19 07:55:48;;;;;;;0.00;0.00;;;15.00;99.90;;;;;;4980864;28;20038;-60
2022/06/19 07:58:13;;;;;;;0.00;0.00;;;14.80;99.90;;;;;;4981437;28;20042;-60
2022/06/19 08:00:39;;;;;;;0.00;0.00;;;14.80;99.90;;;;;;4981508;28;20437;-61
2022/06/19 08:03:06;;;;;;;0.00;0.00;;;14.80;99.90;;;;;;4980432;28;20050;-60
2022/06/19 08:05:35;;;;;;;0.00;0.00;;;14.80;99.90;;;;;;4981663;28;20043;-60
2022/06/19 08:08:04;;;;;;;0.00;0.00;;;14.90;99.90;;;;;;4979523;28;20576;-62
2022/06/19 08:10:33;;;;;;;0.00;0.00;;;14.90;99.90;;;;;;4980463;28;20062;-61
2022/06/19 08:12:59;;;;;;;0.00;0.00;;;14.90;99.90;;;;;;4981443;28;20050;-61
2022/06/19 08:15:26;;;;;;;0.00;0.00;;;14.90;99.90;;;;;;4979330;28;20046;-60
2022/06/19 08:17:53;;;;;;;0.00;0.00;;;15.00;99.90;;;;;;4981596;28;20077;-60
2022/06/19 08:20:20;;;;;;;0.00;0.00;;;15.00;99.90;;;;;;4979750;28;20050;-60
2022/06/19 08:22:46;;;;;;;0.00;0.00;;;15.10;99.90;;;;;;4981789;28;20055;-61
2022/06/19 08:25:13;;;;;;;0.00;0.00;;;15.10;99.90;;;;;;4980007;28;20034;-60
2022/06/19 08:27:42;;;;;;;0.00;0.00;;;15.10;99.90;;;;;;4981613;28;20057;-61
2022/06/19 08:30:12;;;;;;;0.00;0.00;;;15.10;99.90;;;;;;4980141;28;20197;-61
2022/06/19 08:32:38;;;;;;;0.00;0.00;;;15.10;99.90;;;;;;4980117;28;20798;-61
2022/06/19 08:35:04;;;;;;;0.00;0.00;;;15.10;99.90;;;;;;4980491;28;20042;-60
2022/06/19 08:37:32;;;;;;;0.00;0.00;;;15.10;99.90;;;;;;4980476;28;20050;-60
2022/06/19 08:39:58;;;;;;;0.00;0.00;;;15.10;99.90;;;;;;4979145;28;20054;-60
2022/06/19 08:42:52;;;;;;;0.00;0.00;;;15.10;99.90;;;;;;4980603;28;20039;-60
2022/06/19 08:45:44;;;;;;;0.00;0.00;;;15.10;99.90;;;;;;4982148;28;20061;-62
2022/06/19 08:48:15;;;;;;;0.00;0.00;;;15.10;99.90;;;;;;4981853;28;20050;-61
2022/06/19 08:51:02;;;;;;;0.00;0.00;;;15.20;99.90;;;;;;4978997;28;20054;-61
2022/06/19 08:53:38;;;;;;;0.00;0.00;;;15.30;99.90;;;;;;4980488;28;20756;-61
2022/06/19 08:56:13;;;;;;;0.00;0.00;;;15.30;99.90;;;;;;4979187;28;20042;-62
2022/06/19 08:59:07;;;;;;;0.00;0.00;;;15.20;99.90;;;;;;4980320;28;20046;-61
2022/06/19 09:01:46;;;;;;;0.03;0.03;;;15.20;99.90;;;;;;4978691;28;20042;-62
2022/06/19 09:07:26;;;;;;;0.00;0.00;;;15.30;99.90;;;;;;4980109;28;20666;-61
2022/06/19 09:10:20;;;;;;;0.00;0.00;;;15.30;99.90;;;;;;4983544;28;20046;-46
2022/06/19 09:13:22;;;;;;;0.00;0.00;;;15.30;99.90;;;;;;4991537;28;20058;-61
2022/06/19 09:16:12;;;;;;;0.00;0.00;;;15.50;99.90;;;;;;4993495;28;20057;-61
2022/06/19 09:19:14;;;;;;;0.00;0.00;;;15.50;99.90;;;;;;4998546;28;20053;-62
2022/06/19 09:21:46;;;;;;;0.00;0.00;;;15.40;99.90;;;;;;4998503;28;20604;-62
2022/06/19 09:24:30;;;;;;;0.00;0.00;;;15.40;99.90;;;;;;5000118;28;20049;-61
2022/06/19 09:26:59;;;;;;;0.00;0.00;;;15.40;99.90;;;;;;4998877;28;20512;-62
2022/06/19 09:30:02;;;;;;;0.00;0.00;;;15.30;99.90;;;;;;4998721;28;20456;-61
2022/06/19 09:32:46;;;;;;;0.00;0.00;;;15.40;99.90;;;;;;4975694;28;20062;-62
2022/06/19 09:35:22;;;;;;;0.00;0.00;;;15.40;99.90;;;;;;4999216;28;20132;-61
2022/06/19 09:38:00;;;;;;;0.00;0.00;;;15.40;99.90;;;;;;4989587;28;20075;-61
2022/06/19 09:40:41;;;;;;;0.00;0.00;;;15.40;99.90;;;;;;4989940;28;20062;-62
2022/06/19 09:43:25;;;;;;;0.00;0.00;;;15.60;99.90;;;;;;4987900;28;20138;-61
2022/06/19 09:46:05;;;;;;;0.00;0.00;;;15.60;99.90;;;;;;4993297;28;20062;-60
2022/06/19 09:49:09;;;;;;;0.00;0.00;;;15.80;99.90;;;;;;4990743;28;20077;-62
2022/06/19 09:52:08;;;;;;;0.00;0.00;;;15.90;99.90;;;;;;4998903;28;20413;-61
2022/06/19 09:54:41;;;;;;;0.00;0.00;;;16.10;99.90;;;;;;4996266;28;20046;-62
2022/06/19 09:57:13;;;;;;;0.00;0.00;;;16.20;99.90;;;;;;4994378;28;20046;-61
2022/06/19 10:00:00;;;;;;;0.00;0.00;;;16.20;99.90;;;;;;4992883;28;20046;-61
2022/06/19 10:02:47;;;;;;;0.00;0.00;;;16.20;99.90;;;;;;4988628;28;20104;-61
2022/06/19 10:05:25;;;;;;;0.00;0.00;;;16.20;99.90;;;;;;4999512;28;20046;-61
2022/06/19 10:07:59;;;;;;;0.00;0.00;;;16.10;99.90;;;;;;4998758;28;20037;-59
2022/06/19 10:10:40;;;;;;;0.00;0.00;;;16.00;99.90;;;;;;4997507;28;20133;-61
2022/06/19 10:13:15;;;;;;;0.00;0.00;;;15.90;99.90;;;;;;4994964;28;20085;-61
2022/06/19 10:15:42;;;;;;;0.00;0.00;;;15.90;99.90;;;;;;5001398;28;20125;-62
2022/06/19 10:18:26;;;;;;;0.00;0.00;;;15.90;99.90;;;;;;4982855;28;20046;-62
2022/06/19 10:21:08;;;;;;;0.00;0.00;;;15.90;99.90;;;;;;5001585;28;20103;-60
2022/06/19 10:24:06;;;;;;;0.00;0.00;;;16.00;99.90;;;;;;5001902;28;20054;-61
2022/06/19 10:26:34;;;;;;;0.00;0.00;;;16.10;99.90;;;;;;5002815;28;20037;-62
2022/06/19 10:29:30;;;;;;;0.00;0.00;;;16.20;99.90;;;;;;5002812;28;20537;-61
2022/06/19 10:32:23;;;;;;;0.00;0.00;;;16.30;99.90;;;;;;5002725;28;20038;-60
2022/06/19 10:35:09;;;;;;;0.00;0.00;;;16.50;99.90;;;;;;5003385;28;20056;-61
2022/06/19 10:38:14;;;;;;;0.00;0.00;;;16.60;99.90;;;;;;5002583;28;20398;-61
2022/06/19 10:40:47;;;;;;;0.00;0.00;;;16.60;99.90;;;;;;4998950;28;20060;-62
2022/06/19 10:43:26;;;;;;;0.00;0.00;;;16.60;99.90;;;;;;5002859;28;20520;-61
2022/06/19 10:45:56;;;;;;;0.00;0.00;;;16.70;99.90;;;;;;5001118;28;20046;-61
2022/06/19 10:48:27;;;;;;;0.00;0.00;;;16.70;99.90;;;;;;5001413;28;20042;-62
2022/06/19 10:50:53;;;;;;;0.00;0.00;;;16.90;99.90;;;;;;4999685;28;20046;-62
2022/06/19 10:53:48;;;;;;;0.00;0.00;;;16.90;99.90;;;;;;4999760;28;20050;-61
2022/06/19 10:56:16;;;;;;;0.00;0.00;;;16.90;99.90;;;;;;5001660;28;20076;-61
2022/06/19 10:58:42;;;;;;;0.00;0.00;;;16.80;99.90;;;;;;5002163;28;20504;-60
2022/06/19 11:01:09;;;;;;;0.00;0.00;;;16.80;99.90;;;;;;5001969;28;20037;-62
2022/06/19 11:06:42;;;;;;;0.00;0.00;;;16.80;99.90;;;;;;5002427;28;20050;-58
2022/06/19 11:09:18;;;;;;;0.00;0.00;;;17.00;99.90;;;;;;5000316;28;20049;-61
2022/06/19 11:11:46;;;;;;;0.00;0.00;;;17.20;99.90;;;;;;5002313;28;20054;-61
2022/06/19 11:14:27;;;;;;;0.00;0.00;;;17.10;99.90;;;;;;5002475;28;20081;-61
2022/06/19 11:16:59;;;;;;;0.00;0.00;;;17.00;99.90;;;;;;5001040;28;20050;-61
2022/06/19 11:19:35;;;;;;;0.00;0.00;;;17.00;99.90;;;;;;5002126;28;20548;-63
2022/06/19 11:22:04;;;;;;;0.00;0.00;;;16.80;99.90;;;;;;5000304;28;20050;-62
2022/06/19 11:24:33;;;;;;;0.00;0.00;;;16.80;99.90;;;;;;4998407;28;20096;-62
2022/06/19 11:27:00;;;;;;;0.00;0.00;;;16.70;99.90;;;;;;5001589;28;20052;-62
2022/06/19 11:29:27;;;;;;;0.00;0.00;;;16.60;99.90;;;;;;5001803;28;20045;-62
2022/06/19 11:32:05;;;;;;;0.00;0.00;;;16.60;99.90;;;;;;4999443;28;20057;-61
2022/06/19 11:34:44;;;;;;;0.00;0.00;;;16.60;99.90;;;;;;5001623;28;20484;-62
2022/06/19 11:37:24;;;;;;;0.00;0.00;;;16.70;99.90;;;;;;4999327;28;20053;-61
2022/06/19 11:40:09;;;;;;;0.00;0.00;;;16.70;99.90;;;;;;5001073;28;20144;-61
2022/06/19 11:42:47;;;;;;;0.00;0.00;;;16.70;99.90;;;;;;5000598;28;20654;-61
2022/06/19 11:45:12;;;;;;;0.00;0.00;;;16.70;99.90;;;;;;4994501;28;20060;-61
2022/06/19 11:48:02;;;;;;;0.13;0.13;;;16.50;99.90;;;;;;4985780;28;20046;-61
2022/06/19 11:50:35;;;;;;;0.00;0.00;;;16.40;99.90;;;;;;4981742;28;20390;-62
2022/06/19 11:53:06;;;;;;;0.00;0.00;;;16.40;99.90;;;;;;4981572;28;20053;-61
2022/06/19 11:55:50;;;;;;;0.00;0.00;;;16.30;99.90;;;;;;4980008;28;20105;-62
2022/06/19 11:58:26;;;;;;;0.00;0.00;;;16.30;99.90;;;;;;4981682;28;20042;-60
2022/06/19 12:01:19;;;;;;;0.00;0.00;;;16.30;99.90;;;;;;4980663;28;20106;-61
2022/06/19 12:03:44;;;;;;;0.00;0.00;;;16.40;99.90;;;;;;4979865;28;20058;-62
2022/06/19 12:06:12;;;;;;;0.00;0.00;;;16.30;99.90;;;;;;4980719;28;21246;-62
2022/06/19 12:08:56;;;;;;;0.00;0.00;;;16.30;99.90;;;;;;4981404;28;20046;-63
2022/06/19 12:11:38;;;;;;;0.00;0.00;;;16.30;99.90;;;;;;4981383;28;20148;-61
2022/06/19 12:14:06;;;;;;;0.00;0.00;;;16.30;99.90;;;;;;4981140;28;20046;-61
2022/06/19 12:16:32;;;;;;;0.00;0.00;;;16.30;99.90;;;;;;4979845;28;20044;-62
2022/06/19 12:19:24;;;;;;;0.00;0.00;;;16.20;99.90;;;;;;4996487;28;20385;-61
2022/06/19 12:21:59;;;;;;;0.00;0.00;;;16.10;99.90;;;;;;4981832;28;20034;-59
2022/06/19 12:24:41;;;;;;;;;;;16.10;99.90;;;;;;4999576;28;20424;-61
2022/06/19 12:27:15;;;;;;;0.00;0.00;;;16.00;99.90;;;;;;5001151;28;19987;-61
2022/06/19 12:30:04;;;;;;;0.00;0.00;;;16.00;99.90;;;;;;5014360;28;20046;-59
2022/06/19 12:32:38;;;;;;;0.00;0.00;;;15.90;99.90;;;;;;5019680;28;20057;-62
2022/06/19 12:35:21;;;;;;;0.00;0.00;;;15.80;99.90;;;;;;5015184;28;20046;-60
2022/06/19 12:37:48;;;;;;;0.00;0.00;;;15.90;99.90;;;;;;4999808;28;20050;-60
2022/06/19 12:40:16;;;;;;;0.00;0.00;;;15.80;99.90;;;;;;4999554;28;20077;-60
2022/06/19 12:43:20;;;;;;;0.00;0.00;;;15.80;99.90;;;;;;5000495;28;20050;-60
2022/06/19 12:45:56;;;;;;;0.00;0.00;;;15.90;99.90;;;;;;4938297;29;20182;-61
2022/06/19 12:48:39;;;;;;;0.00;0.00;;;15.90;99.90;;;;;;4918931;29;20051;-59
2022/06/19 12:51:39;;;;;;;0.00;0.00;;;15.90;99.90;;;;;;4958888;28;20057;-61
2022/06/19 12:54:24;;;;;;;0.00;0.00;;;16.00;99.90;;;;;;4956267;28;20790;-61
2022/06/19 12:57:07;;;;;;;0.00;0.00;;;16.00;99.90;;;;;;4979492;28;20058;-61
2022/06/19 12:59:40;;;;;;;0.00;0.00;;;16.20;99.90;;;;;;4979094;28;20058;-61
2022/06/19 13:02:29;;;;;;;0.00;0.00;;;16.30;99.90;;;;;;4979891;28;20057;-61
2022/06/19 13:05:17;;;;;;;0.00;0.00;;;16.40;99.90;;;;;;4980392;28;20061;-62
2022/06/19 13:07:58;;;;;;;0.00;0.00;;;16.50;99.90;;;;;;4978780;28;20050;-59
2022/06/19 13:10:33;;;;;;;0.00;0.00;;;16.70;99.90;;;;;;4983282;28;20070;-58
2022/06/19 13:13:07;;;;;;;0.00;0.00;;;16.50;99.90;;;;;;4984922;28;20050;-59
2022/06/19 13:15:56;;;;;;;0.00;0.00;;;16.40;99.90;;;;;;4987105;28;20129;-58
2022/06/19 13:18:40;;;;;;;0.00;0.00;;;16.20;99.90;;;;;;4984915;28;20056;-58
2022/06/19 13:21:26;;;;;;;0.00;0.00;;;16.10;99.90;;;;;;4993604;28;20057;-58